Time;durP1;ratioP1;P1;durP2;ratioP2;P2;SDS_P1;SDS_P2;PMS_P1;PMS_P2;Temp;Humidity;BMP_temperature;BMP_pressure;BME280_temperature;BME280_humidity;BME280_pressure;Samples;Min_cycle;Max_cycle;Signal;HPM_P1;HPM_P2
2023/09/12 00:00:56;;;;;;;35.78;28.55;;;19.50;99.90;;;;;;5040895;28;20056;-75
2023/09/12 00:03:23;;;;;;;36.90;28.40;;;19.50;99.90;;;;;;5037133;28;20042;-74
2023/09/12 00:05:53;;;;;;;36.85;28.35;;;19.50;99.90;;;;;;5036232;28;20044;-73
2023/09/12 00:08:19;;;;;;;41.30;28.83;;;19.40;99.90;;;;;;5022382;28;20041;-73
2023/09/12 00:10:45;;;;;;;38.55;29.15;;;19.40;99.90;;;;;;5036093;28;20044;-72
2023/09/12 00:13:10;;;;;;;35.50;28.45;;;19.30;99.90;;;;;;5040567;28;20037;-75
2023/09/12 00:15:36;;;;;;;36.38;29.70;;;19.40;99.90;;;;;;5024949;28;20044;-73
2023/09/12 00:18:02;;;;;;;39.72;28.65;;;19.30;99.90;;;;;;5043330;28;20049;-73
2023/09/12 00:20:28;;;;;;;35.55;29.25;;;19.30;99.90;;;;;;5038157;28;20124;-73
2023/09/12 00:22:54;;;;;;;37.75;28.35;;;19.30;99.90;;;;;;5043503;28;20120;-73
2023/09/12 00:25:23;;;;;;;42.08;30.23;;;19.20;99.90;;;;;;5047052;28;20053;-72
2023/09/12 00:27:48;;;;;;;40.30;30.95;;;19.30;99.90;;;;;;5024320;28;20051;-72
2023/09/12 00:30:15;;;;;;;42.38;31.38;;;19.20;99.90;;;;;;5041684;28;20124;-72
2023/09/12 00:32:41;;;;;;;36.78;29.02;;;19.20;99.90;;;;;;5042950;28;20433;-72
2023/09/12 00:35:07;;;;;;;41.22;30.05;;;19.20;99.90;;;;;;5023360;28;20040;-72
2023/09/12 00:37:32;;;;;;;38.45;30.23;;;19.20;99.90;;;;;;5042146;28;20042;-72
2023/09/12 00:39:58;;;;;;;39.42;29.13;;;19.20;99.90;;;;;;5046842;28;20474;-72
2023/09/12 00:42:27;;;;;;;35.53;29.75;;;19.20;99.90;;;;;;5041742;28;20120;-72
2023/09/12 00:44:52;;;;;;;33.92;28.48;;;19.10;99.90;;;;;;5043298;28;20044;-72
2023/09/12 00:47:20;;;;;;;42.42;29.88;;;19.20;99.90;;;;;;5042710;28;20037;-72
2023/09/12 00:49:47;;;;;;;39.35;30.50;;;19.10;99.90;;;;;;5040991;28;20029;-72
2023/09/12 00:52:14;;;;;;;41.33;30.70;;;19.10;99.90;;;;;;5043479;28;20409;-72
2023/09/12 00:54:40;;;;;;;42.88;30.58;;;19.10;99.90;;;;;;5024358;28;20036;-72
2023/09/12 00:57:07;;;;;;;38.78;29.10;;;19.10;99.90;;;;;;5039936;28;20566;-72
2023/09/12 00:59:33;;;;;;;41.85;32.13;;;19.10;99.90;;;;;;5041430;28;20045;-72
2023/09/12 01:01:59;;;;;;;44.97;32.85;;;19.10;99.90;;;;;;5024872;28;20049;-72
2023/09/12 01:04:26;;;;;;;42.63;32.10;;;19.00;99.90;;;;;;5043021;28;20524;-72
2023/09/12 01:06:52;;;;;;;40.40;29.98;;;19.10;99.90;;;;;;5044986;28;20041;-72
2023/09/12 01:09:18;;;;;;;43.80;32.40;;;19.00;99.90;;;;;;5040099;28;20543;-71
2023/09/12 01:11:44;;;;;;;40.65;30.65;;;19.00;99.90;;;;;;5029466;28;20048;-72
2023/09/12 01:14:10;;;;;;;41.63;32.03;;;19.10;99.90;;;;;;5040675;28;20045;-72
2023/09/12 01:16:35;;;;;;;39.47;30.20;;;18.90;99.90;;;;;;5041713;28;20072;-72
2023/09/12 01:19:01;;;;;;;39.78;31.20;;;19.00;99.90;;;;;;5025949;28;20692;-72
2023/09/12 01:21:51;;;;;;;40.47;29.92;;;18.90;99.90;;;;;;5023209;28;20044;-72
2023/09/12 01:24:46;;;;;;;38.72;29.40;;;18.80;99.90;;;;;;5023496;28;20040;-72
2023/09/12 01:27:34;;;;;;;43.60;33.25;;;18.80;99.90;;;;;;5042165;28;20037;-72
2023/09/12 01:30:06;;;;;;;42.35;32.15;;;18.70;99.90;;;;;;5050021;28;20052;-72
2023/09/12 01:32:33;;;;;;;47.80;33.20;;;18.70;99.90;;;;;;5022562;28;20025;-72
2023/09/12 01:34:59;;;;;;;46.17;31.98;;;18.70;99.90;;;;;;5042263;28;20507;-72
2023/09/12 01:37:26;;;;;;;43.92;32.78;;;18.60;99.90;;;;;;5038433;28;20037;-71
2023/09/12 01:39:52;;;;;;;42.00;31.88;;;18.60;99.90;;;;;;5026074;28;20068;-71
2023/09/12 01:42:20;;;;;;;46.55;32.47;;;18.70;99.90;;;;;;5037812;28;20076;-71
2023/09/12 01:44:49;;;;;;;46.90;32.75;;;18.60;99.90;;;;;;5022728;28;20120;-72
2023/09/12 01:47:17;;;;;;;43.60;33.92;;;18.50;99.90;;;;;;5023637;28;20049;-72
2023/09/12 01:49:47;;;;;;;41.60;30.65;;;18.50;99.90;;;;;;5040144;28;20037;-71
2023/09/12 01:52:14;;;;;;;42.70;31.33;;;18.60;99.90;;;;;;5038834;28;20041;-71
2023/09/12 01:54:42;;;;;;;43.30;32.22;;;18.50;99.90;;;;;;5022438;28;20044;-71
2023/09/12 01:57:08;;;;;;;46.30;32.55;;;18.40;99.90;;;;;;5009264;28;20522;-71
2023/09/12 01:59:34;;;;;;;43.50;33.60;;;18.50;99.90;;;;;;5040360;28;20458;-71
2023/09/12 02:02:00;;;;;;;44.65;33.55;;;18.40;99.90;;;;;;5021660;28;20061;-71
2023/09/12 02:04:26;;;;;;;46.17;33.53;;;18.40;99.90;;;;;;5040077;28;20111;-71
2023/09/12 02:06:51;;;;;;;45.55;33.50;;;18.40;99.90;;;;;;5023282;28;20036;-71
2023/09/12 02:09:17;;;;;;;46.78;32.58;;;18.30;99.90;;;;;;5024596;28;20091;-71
2023/09/12 02:11:43;;;;;;;42.47;32.75;;;18.30;99.90;;;;;;5022959;28;20110;-71
2023/09/12 02:14:10;;;;;;;50.97;34.47;;;18.30;99.90;;;;;;5026078;28;20049;-71
2023/09/12 02:16:40;;;;;;;38.08;31.20;;;18.30;99.90;;;;;;5025204;28;20045;-71
2023/09/12 02:19:06;;;;;;;42.45;29.85;;;18.30;99.90;;;;;;5026712;28;20138;-71
2023/09/12 02:21:32;;;;;;;46.22;27.90;;;18.10;99.90;;;;;;5040200;28;20048;-71
2023/09/12 02:23:58;;;;;;;45.17;28.90;;;18.10;99.90;;;;;;5022917;28;20048;-71
2023/09/12 02:26:23;;;;;;;46.13;28.92;;;18.10;99.90;;;;;;5024866;28;20045;-71
2023/09/12 02:28:49;;;;;;;47.38;29.63;;;18.00;99.90;;;;;;5024615;28;20415;-71
2023/09/12 02:31:15;;;;;;;105.57;31.70;;;17.90;99.90;;;;;;5038779;28;20033;-71
2023/09/12 02:33:41;;;;;;;47.78;27.02;;;17.80;99.90;;;;;;5020485;28;20053;-71
2023/09/12 02:36:06;;;;;;;39.67;27.40;;;17.80;99.90;;;;;;5042683;28;20040;-71
2023/09/12 02:38:32;;;;;;;37.90;27.98;;;17.80;99.90;;;;;;5044422;28;20064;-71
2023/09/12 02:40:58;;;;;;;41.17;29.35;;;17.70;99.90;;;;;;5023609;28;20423;-71
2023/09/12 02:43:24;;;;;;;46.97;30.80;;;17.80;99.90;;;;;;5041016;28;20045;-71
2023/09/12 02:45:49;;;;;;;38.45;28.88;;;17.70;99.90;;;;;;5040221;28;20036;-71
2023/09/12 02:48:15;;;;;;;55.95;33.72;;;17.60;99.90;;;;;;5043485;28;20068;-72
2023/09/12 02:50:41;;;;;;;54.88;34.22;;;17.60;99.90;;;;;;5009878;28;20488;-71
2023/09/12 02:53:07;;;;;;;50.22;33.33;;;17.70;99.90;;;;;;5037091;28;20045;-72
2023/09/12 02:55:33;;;;;;;42.88;32.65;;;17.70;99.90;;;;;;5037216;28;20033;-71
2023/09/12 02:57:58;;;;;;;51.47;34.63;;;17.60;99.90;;;;;;5038908;28;20057;-71
2023/09/12 03:00:24;;;;;;;48.63;33.53;;;17.60;99.90;;;;;;5042185;28;20033;-70
2023/09/12 03:02:50;;;;;;;43.13;32.55;;;17.60;99.90;;;;;;5039031;28;20046;-70
2023/09/12 03:05:16;;;;;;;51.05;35.00;;;17.60;99.90;;;;;;5040503;28;20037;-70
2023/09/12 03:07:41;;;;;;;49.85;33.90;;;17.70;99.90;;;;;;5029123;28;20082;-71
2023/09/12 03:10:07;;;;;;;48.40;34.03;;;17.60;99.90;;;;;;5037083;28;20132;-71
2023/09/12 03:12:35;;;;;;;58.38;33.28;;;17.60;99.90;;;;;;5021565;28;20432;-71
2023/09/12 03:15:01;;;;;;;46.55;31.02;;;17.60;99.90;;;;;;5038358;28;20051;-72
2023/09/12 03:17:28;;;;;;;43.15;29.90;;;17.60;99.90;;;;;;5025385;28;20037;-72
2023/09/12 03:19:54;;;;;;;44.28;29.00;;;17.60;99.90;;;;;;5039893;28;20044;-72
2023/09/12 03:22:19;;;;;;;44.40;30.45;;;17.60;99.90;;;;;;5020577;28;20051;-72
2023/09/12 03:24:45;;;;;;;43.80;30.15;;;17.60;99.90;;;;;;5040804;28;20507;-72
2023/09/12 03:27:11;;;;;;;47.25;32.20;;;17.60;99.90;;;;;;5024242;28;20468;-71
2023/09/12 03:29:36;;;;;;;47.15;32.72;;;17.50;99.90;;;;;;5041554;28;20498;-71
2023/09/12 03:32:02;;;;;;;45.17;30.42;;;17.50;99.90;;;;;;5040335;28;20040;-71
2023/09/12 03:34:28;;;;;;;51.20;32.50;;;17.40;99.90;;;;;;5022252;28;20041;-71
2023/09/12 03:36:53;;;;;;;43.83;30.33;;;17.50;99.90;;;;;;5026451;28;20242;-72
2023/09/12 03:39:19;;;;;;;51.53;33.53;;;17.40;99.90;;;;;;5040374;28;20041;-72
2023/09/12 03:41:45;;;;;;;60.00;35.22;;;17.40;99.90;;;;;;5038048;28;20057;-72
2023/09/12 03:44:10;;;;;;;140.38;36.72;;;17.40;99.90;;;;;;5038649;28;20048;-71
2023/09/12 03:46:36;;;;;;;200.00;35.58;;;17.40;99.90;;;;;;5042707;28;20483;-71
2023/09/12 03:49:01;;;;;;;379.77;45.42;;;17.30;99.90;;;;;;5022254;28;20183;-72
2023/09/12 03:51:27;;;;;;;453.88;42.88;;;17.30;99.90;;;;;;5019252;28;20478;-72
2023/09/12 03:53:53;;;;;;;589.80;45.88;;;17.30;99.90;;;;;;5037867;28;20585;-72
2023/09/12 03:56:19;;;;;;;535.17;41.97;;;17.20;99.90;;;;;;5007384;28;20114;-72
2023/09/12 03:58:45;;;;;;;390.45;33.83;;;17.10;99.90;;;;;;5016860;28;20085;-72
2023/09/12 04:01:11;;;;;;;398.48;33.03;;;17.00;99.90;;;;;;5019580;28;20052;-72
2023/09/12 04:03:37;;;;;;;340.27;32.88;;;17.00;99.90;;;;;;5039250;28;20053;-72
2023/09/12 04:06:02;;;;;;;233.23;27.55;;;16.90;99.90;;;;;;5035581;28;20060;-71
2023/09/12 04:08:28;;;;;;;266.73;28.80;;;16.90;99.90;;;;;;5024703;28;20185;-71
2023/09/12 04:10:54;;;;;;;286.85;32.03;;;16.90;99.90;;;;;;5040607;28;20037;-71
2023/09/12 04:13:20;;;;;;;291.27;33.22;;;16.80;99.90;;;;;;5023325;28;20041;-71
2023/09/12 04:15:45;;;;;;;135.35;29.65;;;16.80;99.90;;;;;;5020278;28;22389;-70
2023/09/12 04:18:11;;;;;;;98.13;31.73;;;16.80;99.90;;;;;;5038227;28;20152;-71
2023/09/12 04:20:37;;;;;;;114.97;37.63;;;16.90;99.90;;;;;;5039118;28;20076;-71
2023/09/12 04:23:03;;;;;;;163.38;44.53;;;16.80;99.90;;;;;;5039238;28;20464;-72
2023/09/12 04:25:30;;;;;;;112.18;47.83;;;16.90;99.90;;;;;;5020534;28;20043;-72
2023/09/12 04:27:55;;;;;;;135.57;50.35;;;16.90;99.90;;;;;;5038794;28;20049;-72
2023/09/12 04:30:21;;;;;;;86.35;44.72;;;16.90;99.90;;;;;;5038006;28;20096;-72
2023/09/12 04:32:47;;;;;;;119.90;49.78;;;16.90;99.90;;;;;;5039629;28;20098;-72
2023/09/12 04:35:13;;;;;;;119.70;52.00;;;17.00;99.90;;;;;;5017178;28;20037;-72
2023/09/12 04:37:39;;;;;;;123.63;51.25;;;16.90;99.90;;;;;;5020013;28;20080;-72
2023/09/12 04:40:06;;;;;;;107.53;52.30;;;16.90;99.90;;;;;;5022047;28;20041;-72
2023/09/12 04:42:32;;;;;;;126.95;54.88;;;16.90;99.90;;;;;;5025552;28;20649;-72
2023/09/12 04:44:58;;;;;;;159.57;55.42;;;16.90;99.90;;;;;;5035549;28;20044;-71
2023/09/12 04:47:23;;;;;;;154.95;54.08;;;16.90;99.90;;;;;;5036567;28;20045;-71
2023/09/12 04:49:49;;;;;;;197.85;54.25;;;16.90;99.90;;;;;;5005436;28;20076;-71
2023/09/12 04:52:15;;;;;;;151.32;49.40;;;16.90;99.90;;;;;;5042075;28;20063;-71
2023/09/12 04:54:40;;;;;;;124.68;49.75;;;16.90;99.90;;;;;;5042106;28;20477;-71
2023/09/12 04:57:07;;;;;;;196.20;50.22;;;17.00;99.90;;;;;;5040506;28;20045;-71
2023/09/12 04:59:33;;;;;;;247.55;51.45;;;16.90;99.90;;;;;;5033991;28;20090;-72
2023/09/12 05:01:58;;;;;;;208.57;48.88;;;16.90;99.90;;;;;;5026402;28;20526;-71
2023/09/12 05:04:26;;;;;;;187.23;51.58;;;16.90;99.90;;;;;;5038705;28;20053;-72
2023/09/12 05:06:51;;;;;;;83.60;39.90;;;16.90;99.90;;;;;;5030473;28;20036;-72
2023/09/12 05:09:17;;;;;;;96.55;38.75;;;16.90;99.90;;;;;;5011090;28;20503;-72
2023/09/12 05:11:44;;;;;;;56.05;35.60;;;17.00;99.90;;;;;;5043302;28;20045;-72
2023/09/12 05:14:09;;;;;;;73.63;37.72;;;17.00;99.90;;;;;;5025226;28;20072;-71
2023/09/12 05:16:35;;;;;;;71.38;36.88;;;17.00;99.90;;;;;;5026032;28;20032;-72
2023/09/12 05:19:01;;;;;;;88.40;35.70;;;17.00;99.90;;;;;;5024702;28;20053;-71
2023/09/12 05:21:26;;;;;;;61.20;33.90;;;17.00;99.90;;;;;;5044237;28;20127;-71
2023/09/12 05:23:52;;;;;;;173.80;41.30;;;17.00;99.90;;;;;;5036760;28;20037;-71
2023/09/12 05:26:18;;;;;;;183.27;43.80;;;17.00;99.90;;;;;;5046247;28;20128;-71
2023/09/12 05:28:44;;;;;;;132.73;40.58;;;17.10;99.90;;;;;;5039718;28;20037;-71
2023/09/12 05:31:09;;;;;;;214.15;43.53;;;17.00;99.90;;;;;;5043084;28;20033;-71
2023/09/12 05:33:35;;;;;;;273.88;48.47;;;17.00;99.90;;;;;;5051609;28;20123;-72
2023/09/12 05:36:01;;;;;;;221.30;48.30;;;17.10;99.90;;;;;;5052012;28;20033;-73
2023/09/12 05:38:26;;;;;;;227.55;51.55;;;17.20;99.90;;;;;;5048760;28;20739;-73
2023/09/12 05:40:52;;;;;;;164.57;42.60;;;17.10;99.90;;;;;;5025106;28;20037;-73
2023/09/12 05:43:18;;;;;;;159.38;45.58;;;17.20;99.90;;;;;;5043651;28;20119;-73
2023/09/12 05:45:44;;;;;;;107.80;43.70;;;17.20;99.90;;;;;;5038531;28;20111;-71
2023/09/12 05:48:10;;;;;;;109.85;47.15;;;17.20;99.90;;;;;;5046207;28;20045;-70
2023/09/12 05:50:39;;;;;;;57.85;38.55;;;17.20;99.90;;;;;;5040195;28;20048;-74
2023/09/12 05:53:04;;;;;;;69.18;40.88;;;17.40;99.90;;;;;;5042184;28;20037;-73
2023/09/12 05:55:30;;;;;;;68.57;41.10;;;17.30;99.90;;;;;;5042579;28;20075;-74
2023/09/12 05:57:55;;;;;;;73.35;41.92;;;17.40;99.90;;;;;;5021302;28;20056;-75
2023/09/12 06:00:21;;;;;;;66.18;41.13;;;17.50;99.90;;;;;;5040130;28;20155;-74
2023/09/12 06:02:48;;;;;;;61.95;40.55;;;17.50;99.90;;;;;;5038458;28;20040;-74
2023/09/12 06:05:14;;;;;;;71.57;42.00;;;17.50;99.90;;;;;;5041815;28;20049;-74
2023/09/12 06:07:40;;;;;;;65.45;41.80;;;17.60;99.90;;;;;;5040201;28;20439;-73
2023/09/12 06:10:07;;;;;;;67.18;41.17;;;17.60;99.90;;;;;;5019933;28;20033;-72
2023/09/12 06:12:33;;;;;;;69.63;40.97;;;17.70;99.90;;;;;;5021268;28;20060;-72
2023/09/12 06:14:59;;;;;;;68.32;41.95;;;17.70;99.90;;;;;;5003202;28;20041;-71
2023/09/12 06:17:25;;;;;;;67.15;40.90;;;17.80;99.90;;;;;;5022060;28;20419;-71
2023/09/12 06:19:51;;;;;;;66.50;41.50;;;17.80;99.90;;;;;;5026948;28;20472;-72
2023/09/12 06:22:17;;;;;;;65.93;40.40;;;17.80;99.90;;;;;;5040347;28;20049;-72
2023/09/12 06:24:43;;;;;;;74.55;42.10;;;17.90;99.90;;;;;;5042106;28;20118;-72
2023/09/12 06:27:12;;;;;;;65.50;40.47;;;17.90;99.90;;;;;;5024795;28;20059;-72
2023/09/12 06:29:38;;;;;;;67.30;40.60;;;17.90;99.90;;;;;;5039577;28;20049;-72
2023/09/12 06:32:03;;;;;;;68.70;42.50;;;18.00;99.90;;;;;;5043430;28;20052;-73
2023/09/12 06:34:29;;;;;;;69.22;41.47;;;18.10;99.90;;;;;;5029823;28;20076;-69
2023/09/12 06:36:55;;;;;;;76.47;45.85;;;18.20;99.90;;;;;;5041747;28;20033;-71
2023/09/12 06:39:20;;;;;;;78.82;45.25;;;18.20;99.90;;;;;;5042221;28;20498;-71
2023/09/12 06:41:46;;;;;;;82.70;47.83;;;18.20;99.90;;;;;;5024687;28;20055;-71
2023/09/12 06:44:12;;;;;;;79.40;45.97;;;18.30;99.90;;;;;;5039589;28;20037;-71
2023/09/12 06:46:38;;;;;;;74.88;43.97;;;18.30;99.90;;;;;;5040967;28;20046;-71
2023/09/12 06:49:03;;;;;;;76.07;46.00;;;18.40;99.90;;;;;;5045177;28;20040;-71
2023/09/12 06:51:29;;;;;;;76.10;44.17;;;18.40;99.90;;;;;;5040415;28;20065;-71
2023/09/12 06:53:55;;;;;;;80.97;47.45;;;18.30;99.90;;;;;;5045163;28;20048;-71
2023/09/12 06:56:23;;;;;;;84.28;47.85;;;18.50;99.90;;;;;;5009307;28;20128;-71
2023/09/12 06:58:49;;;;;;;83.13;46.83;;;18.40;99.90;;;;;;5042188;28;20265;-71
2023/09/12 07:01:15;;;;;;;77.90;47.50;;;18.50;99.90;;;;;;5025751;28;20037;-71
2023/09/12 07:03:40;;;;;;;94.65;50.00;;;18.50;99.90;;;;;;5047958;28;20132;-71
2023/09/12 07:06:06;;;;;;;81.60;47.40;;;18.60;99.90;;;;;;5039700;28;20128;-71
2023/09/12 07:08:32;;;;;;;91.07;49.05;;;18.60;99.90;;;;;;5024193;28;20435;-71
2023/09/12 07:11:05;;;;;;;97.55;51.55;;;18.70;99.90;;;;;;5039754;28;20721;-71
2023/09/12 07:13:31;;;;;;;85.72;48.22;;;18.80;99.90;;;;;;5033159;28;20523;-71
2023/09/12 07:15:57;;;;;;;85.57;49.38;;;19.00;99.90;;;;;;5042244;28;20052;-71
2023/09/12 07:18:23;;;;;;;88.78;49.70;;;19.20;99.90;;;;;;5026578;28;20045;-72
2023/09/12 07:21:00;;;;;;;86.50;49.33;;;19.40;99.90;;;;;;5026268;28;20051;-71
2023/09/12 07:23:26;;;;;;;81.72;47.15;;;19.60;99.90;;;;;;5047763;28;20042;-71
2023/09/12 07:25:52;;;;;;;74.03;45.90;;;19.80;99.90;;;;;;5037351;28;20064;-71
2023/09/12 07:28:19;;;;;;;77.82;45.65;;;20.00;99.90;;;;;;5025798;28;20073;-71
2023/09/12 07:30:48;;;;;;;69.78;43.72;;;20.10;99.90;;;;;;5023479;28;20691;-71
2023/09/12 07:33:14;;;;;;;71.20;43.08;;;20.30;99.90;;;;;;5042855;28;20045;-72
2023/09/12 07:35:39;;;;;;;62.80;40.65;;;20.40;99.90;;;;;;5009943;28;20029;-72
2023/09/12 07:38:05;;;;;;;65.65;41.55;;;20.60;99.90;;;;;;5021782;28;20037;-72
2023/09/12 07:40:31;;;;;;;63.17;41.42;;;20.60;99.90;;;;;;5044389;28;20091;-71
2023/09/12 07:42:56;;;;;;;57.88;38.97;;;20.60;99.90;;;;;;5024917;28;20789;-72
2023/09/12 07:45:22;;;;;;;59.38;39.30;;;20.60;99.90;;;;;;5040466;28;20399;-72
2023/09/12 07:47:48;;;;;;;62.00;38.03;;;20.70;99.90;;;;;;5023193;28;20139;-72
2023/09/12 07:50:14;;;;;;;59.13;38.72;;;20.60;99.90;;;;;;5026554;28;20053;-72
2023/09/12 07:52:39;;;;;;;59.13;38.35;;;20.60;99.90;;;;;;5041309;28;20037;-72
2023/09/12 07:55:06;;;;;;;58.05;38.30;;;20.60;99.90;;;;;;5046200;28;20041;-72
2023/09/12 07:57:33;;;;;;;60.60;36.53;;;20.70;99.90;;;;;;5041103;28;20260;-72
2023/09/12 07:59:58;;;;;;;55.03;36.03;;;20.60;99.90;;;;;;5037939;28;20053;-72
2023/09/12 08:02:24;;;;;;;55.22;35.10;;;20.70;99.90;;;;;;5042726;28;20046;-72
2023/09/12 08:04:51;;;;;;;50.25;33.13;;;20.70;99.90;;;;;;5043605;28;20037;-73
2023/09/12 08:07:17;;;;;;;52.80;32.90;;;20.80;99.90;;;;;;5043852;28;20561;-72
2023/09/12 08:09:56;;;;;;;45.90;31.77;;;20.70;99.90;;;;;;5042429;28;20041;-72
2023/09/12 08:12:24;;;;;;;49.35;30.15;;;20.80;99.90;;;;;;5041798;28;20523;-73
2023/09/12 08:14:49;;;;;;;43.05;29.35;;;20.70;99.90;;;;;;5045644;28;20128;-73
2023/09/12 08:17:15;;;;;;;46.97;28.60;;;20.70;99.90;;;;;;5022599;28;20455;-72
2023/09/12 08:19:41;;;;;;;40.15;27.88;;;20.80;99.90;;;;;;5024904;28;20045;-71
2023/09/12 08:22:08;;;;;;;39.55;27.60;;;20.90;99.90;;;;;;5003890;28;20381;-71
2023/09/12 08:24:38;;;;;;;38.22;26.80;;;21.10;99.90;;;;;;5040083;28;20103;-72
2023/09/12 08:27:05;;;;;;;45.85;27.52;;;21.20;99.90;;;;;;5040459;28;20056;-72
2023/09/12 08:29:32;;;;;;;40.00;25.88;;;21.20;99.90;;;;;;5038762;28;20046;-72
2023/09/12 08:31:58;;;;;;;37.83;26.38;;;21.30;99.90;;;;;;5001172;28;20081;-72
2023/09/12 08:34:23;;;;;;;36.42;25.88;;;21.30;99.90;;;;;;5008043;28;20081;-71
2023/09/12 08:36:49;;;;;;;38.45;24.95;;;21.40;99.90;;;;;;5041588;28;20061;-72
2023/09/12 08:39:16;;;;;;;37.72;25.50;;;21.60;99.90;;;;;;5029977;28;20527;-72
2023/09/12 08:41:47;;;;;;;38.08;24.25;;;21.70;99.90;;;;;;5037464;28;20029;-72
2023/09/12 08:44:14;;;;;;;38.42;25.23;;;21.80;99.90;;;;;;5031893;28;20037;-72
2023/09/12 08:46:42;;;;;;;37.47;24.77;;;21.80;99.90;;;;;;5044137;28;20044;-71
2023/09/12 08:49:09;;;;;;;36.97;23.02;;;21.90;99.90;;;;;;5021485;28;20136;-71
2023/09/12 08:51:36;;;;;;;32.92;22.38;;;22.00;99.90;;;;;;5051550;28;20036;-72
2023/09/12 08:54:04;;;;;;;33.55;23.90;;;22.00;99.90;;;;;;5049224;28;20044;-72
2023/09/12 08:56:30;;;;;;;33.97;21.00;;;22.00;99.90;;;;;;5041795;28;20040;-72
2023/09/12 08:58:58;;;;;;;34.03;21.88;;;22.00;99.90;;;;;;5038731;28;20056;-72
2023/09/12 09:01:27;;;;;;;28.95;21.27;;;22.10;99.90;;;;;;5041200;28;20037;-71
2023/09/12 09:03:53;;;;;;;28.95;20.33;;;22.10;99.90;;;;;;5039479;28;20049;-71
2023/09/12 09:06:21;;;;;;;32.00;21.30;;;22.10;99.90;;;;;;5040156;28;20041;-72
2023/09/12 09:08:48;;;;;;;32.63;20.25;;;22.10;99.90;;;;;;5043558;28;20106;-71
2023/09/12 09:11:14;;;;;;;25.98;19.55;;;22.10;99.90;;;;;;5043346;28;20108;-72
2023/09/12 09:13:39;;;;;;;28.42;18.73;;;22.00;99.90;;;;;;5045740;28;20040;-72
2023/09/12 09:16:21;;;;;;;26.00;18.83;;;22.00;99.90;;;;;;5039146;28;20392;-71
2023/09/12 09:19:00;;;;;;;27.80;19.13;;;22.00;99.90;;;;;;5029552;28;20046;-70
2023/09/12 09:21:30;;;;;;;28.27;19.75;;;22.10;99.90;;;;;;5025740;28;20073;-71
2023/09/12 09:23:57;;;;;;;26.27;18.33;;;22.30;99.90;;;;;;5042905;28;20076;-71
2023/09/12 09:26:24;;;;;;;26.98;18.88;;;22.40;99.90;;;;;;5043057;28;20044;-71
2023/09/12 09:29:08;;;;;;;24.63;17.88;;;22.60;99.90;;;;;;5028654;28;20052;-72
2023/09/12 09:31:34;;;;;;;30.23;19.88;;;22.80;99.90;;;;;;5040978;28;20067;-72
2023/09/12 09:34:01;;;;;;;26.55;19.20;;;23.00;99.90;;;;;;5041744;28;20501;-72
2023/09/12 09:36:28;;;;;;;29.50;19.20;;;23.10;99.90;;;;;;5045822;28;20055;-72
2023/09/12 09:39:04;;;;;;;27.25;17.33;;;23.00;99.90;;;;;;5041358;28;20033;-72
2023/09/12 09:41:30;;;;;;;24.38;16.60;;;23.10;99.90;;;;;;5007420;28;20132;-72
2023/09/12 09:43:56;;;;;;;31.23;18.60;;;23.10;99.90;;;;;;5021460;28;20128;-72
2023/09/12 09:46:22;;;;;;;20.98;14.98;;;23.20;99.90;;;;;;5038854;28;20124;-72
2023/09/12 09:48:51;;;;;;;19.38;15.32;;;23.10;99.90;;;;;;5039371;28;20593;-73
2023/09/12 09:51:17;;;;;;;23.33;15.30;;;23.20;99.90;;;;;;5023075;28;20384;-73
2023/09/12 09:53:43;;;;;;;21.02;15.73;;;23.30;99.90;;;;;;5026762;28;20038;-70
2023/09/12 09:56:10;;;;;;;25.15;16.33;;;23.40;99.90;;;;;;5026111;28;20099;-73
2023/09/12 09:58:41;;;;;;;21.77;15.43;;;23.30;99.90;;;;;;5026142;28;20080;-73
2023/09/12 10:01:10;;;;;;;20.98;13.50;;;23.40;99.90;;;;;;5025599;28;20044;-73
2023/09/12 10:03:37;;;;;;;16.23;12.57;;;23.40;99.90;;;;;;5027961;28;20033;-71
2023/09/12 10:06:05;;;;;;;20.63;14.32;;;23.40;99.90;;;;;;5037373;28;20125;-71
2023/09/12 10:08:33;;;;;;;20.80;15.25;;;23.30;99.90;;;;;;5022777;28;20060;-71
2023/09/12 10:10:59;;;;;;;25.65;15.18;;;23.30;99.90;;;;;;5044274;28;20132;-71
2023/09/12 10:13:31;;;;;;;21.67;14.90;;;23.30;99.90;;;;;;5043170;28;20112;-71
2023/09/12 10:15:57;;;;;;;19.10;14.70;;;23.30;99.90;;;;;;5042564;28;22048;-71
2023/09/12 10:18:26;;;;;;;22.13;14.10;;;23.30;99.90;;;;;;5043069;28;20484;-71
2023/09/12 10:20:58;;;;;;;24.17;15.57;;;23.30;99.90;;;;;;5028034;28;20041;-71
2023/09/12 10:23:46;;;;;;;23.80;15.48;;;23.30;99.90;;;;;;5045917;28;20037;-71
2023/09/12 10:26:13;;;;;;;21.58;15.25;;;23.30;99.90;;;;;;5045205;28;20043;-70
2023/09/12 10:28:43;;;;;;;23.67;16.33;;;23.30;99.90;;;;;;5019680;28;20067;-70
2023/09/12 10:31:11;;;;;;;23.73;14.68;;;23.30;99.90;;;;;;5024039;28;20045;-71
2023/09/12 10:33:37;;;;;;;22.70;14.85;;;23.20;99.90;;;;;;5044625;28;20052;-70
2023/09/12 10:36:05;;;;;;;23.10;13.88;;;23.30;99.90;;;;;;5009283;28;20400;-70
2023/09/12 10:38:32;;;;;;;22.65;15.02;;;23.40;99.90;;;;;;5043708;28;20052;-70
2023/09/12 10:41:01;;;;;;;19.70;14.25;;;23.40;99.90;;;;;;5042795;28;20044;-71
2023/09/12 10:43:28;;;;;;;21.70;15.77;;;23.50;99.90;;;;;;5043315;28;20122;-71
2023/09/12 10:45:56;;;;;;;22.67;15.07;;;23.50;99.90;;;;;;5043326;28;20040;-70
2023/09/12 10:48:22;;;;;;;21.13;13.75;;;23.60;99.90;;;;;;5035907;28;20120;-71
2023/09/12 10:50:49;;;;;;;18.73;13.90;;;23.60;99.90;;;;;;5020210;28;20515;-70
2023/09/12 10:53:15;;;;;;;20.13;13.90;;;23.70;99.90;;;;;;5043447;28;20587;-71
2023/09/12 10:55:42;;;;;;;20.20;14.15;;;23.90;99.90;;;;;;5027515;28;20036;-70
2023/09/12 10:58:10;;;;;;;23.70;14.40;;;24.00;99.90;;;;;;5026566;28;20429;-71
2023/09/12 11:00:38;;;;;;;20.92;15.45;;;24.00;99.90;;;;;;5024556;28;20120;-70
2023/09/12 11:03:28;;;;;;;19.52;13.65;;;24.10;99.90;;;;;;5019294;28;20053;-70
2023/09/12 11:05:55;;;;;;;18.45;12.65;;;24.20;99.90;;;;;;5038320;28;20049;-71
2023/09/12 11:08:22;;;;;;;18.65;13.13;;;24.50;99.90;;;;;;5042032;28;20044;-71
2023/09/12 11:11:23;;;;;;;17.65;12.73;;;24.70;99.90;;;;;;5033601;28;20052;-70
2023/09/12 11:14:05;;;;;;;19.23;14.02;;;24.80;99.90;;;;;;4942216;28;20047;-70
2023/09/12 11:16:31;;;;;;;15.60;12.55;;;24.70;99.90;;;;;;5030877;28;20049;-71
2023/09/12 11:19:19;;;;;;;17.27;12.57;;;24.50;99.90;;;;;;5028730;28;20076;-71
2023/09/12 11:21:47;;;;;;;14.57;11.35;;;24.20;99.90;;;;;;5026927;28;20123;-71
2023/09/12 11:24:14;;;;;;;17.05;11.30;;;24.00;99.90;;;;;;5023063;28;20064;-71
2023/09/12 11:26:57;;;;;;;17.58;11.98;;;23.80;99.90;;;;;;5039220;28;20049;-68
2023/09/12 11:29:28;;;;;;;17.98;11.88;;;23.60;99.90;;;;;;5024570;28;20055;-71
2023/09/12 11:31:59;;;;;;;18.00;10.98;;;23.40;99.90;;;;;;5042999;28;20511;-70
2023/09/12 11:34:29;;;;;;;16.65;10.68;;;23.30;99.90;;;;;;5038578;28;20040;-71
2023/09/12 11:36:57;;;;;;;15.23;11.73;;;23.10;99.90;;;;;;5042352;28;20508;-71
2023/09/12 11:39:25;;;;;;;16.15;11.30;;;23.00;99.90;;;;;;5016265;28;20076;-72
2023/09/12 11:41:51;;;;;;;17.48;12.05;;;23.00;99.90;;;;;;5040736;28;20045;-71
2023/09/12 11:44:19;;;;;;;16.70;11.95;;;23.10;99.90;;;;;;5024153;28;20079;-71
2023/09/12 11:46:49;;;;;;;18.45;10.88;;;23.10;99.90;;;;;;5028567;28;20041;-70
2023/09/12 11:49:15;;;;;;;14.00;10.82;;;23.10;99.90;;;;;;5006919;28;20372;-71
2023/09/12 11:51:48;;;;;;;13.10;10.23;;;23.10;99.90;;;;;;5036655;28;20099;-72
2023/09/12 11:54:14;;;;;;;;;;;23.20;99.90;;;;;;5034295;28;20083;-71
2023/09/12 11:56:40;;;;;;;13.05;10.32;;;23.20;99.90;;;;;;5041550;28;19970;-71
2023/09/12 11:59:07;;;;;;;12.32;9.18;;;23.20;99.90;;;;;;5038401;28;20052;-70
2023/09/12 12:01:33;;;;;;;13.63;10.00;;;23.20;99.90;;;;;;5036659;28;20099;-71
2023/09/12 12:03:58;;;;;;;11.73;9.75;;;23.10;99.90;;;;;;5033360;28;20049;-71
2023/09/12 12:06:24;;;;;;;11.13;7.78;;;23.10;99.90;;;;;;5038936;28;20060;-72
2023/09/12 12:08:54;;;;;;;11.32;8.48;;;23.10;99.90;;;;;;5037716;28;20033;-71
2023/09/12 12:11:20;;;;;;;12.30;7.35;;;23.00;99.90;;;;;;5045273;28;20041;-71
2023/09/12 12:13:45;;;;;;;8.70;6.68;;;23.00;99.90;;;;;;5029093;28;20044;-71
2023/09/12 12:16:15;;;;;;;11.57;6.68;;;23.00;99.90;;;;;;5044506;28;20029;-71
2023/09/12 12:18:41;;;;;;;9.40;7.35;;;23.00;99.90;;;;;;5042549;28;20172;-71
2023/09/12 12:21:07;;;;;;;9.93;6.97;;;23.00;99.90;;;;;;5025343;28;20055;-71
2023/09/12 12:23:33;;;;;;;8.32;6.13;;;23.00;99.90;;;;;;5025110;28;20040;-71
2023/09/12 12:26:05;;;;;;;8.57;6.13;;;23.10;99.90;;;;;;5043408;28;20095;-71